createdAt,value
2022-08-21T00:02:30.689Z,16.80
2022-08-21T00:05:03.517Z,16.90
2022-08-21T00:07:34.720Z,16.80
2022-08-21T00:10:07.496Z,16.80
2022-08-21T00:12:43.383Z,16.70
2022-08-21T00:15:30.621Z,16.80
2022-08-21T00:18:04.882Z,16.80
2022-08-21T00:20:34.056Z,16.80
2022-08-21T00:23:05.563Z,16.50
2022-08-21T00:25:35.299Z,16.60
2022-08-21T00:28:06.281Z,16.60
2022-08-21T00:30:38.269Z,16.80
2022-08-21T00:33:13.805Z,16.60
2022-08-21T00:35:46.954Z,16.20
2022-08-21T00:38:19.682Z,16.50
2022-08-21T00:40:51.569Z,16.60
2022-08-21T00:43:25.373Z,16.60
2022-08-21T00:46:11.993Z,16.50
2022-08-21T00:48:42.516Z,16.60
2022-08-21T00:51:30.663Z,16.90
2022-08-21T00:54:05.138Z,16.60
2022-08-21T00:56:34.278Z,16.80
2022-08-21T00:59:21.036Z,16.80
2022-08-21T01:01:54.405Z,16.90
2022-08-21T01:04:33.628Z,16.90
2022-08-21T01:07:14.535Z,16.90
2022-08-21T01:09:56.740Z,16.90
2022-08-21T01:12:32.262Z,16.80
2022-08-21T01:15:01.556Z,16.70
2022-08-21T01:17:35.965Z,16.60
2022-08-21T01:20:22.113Z,16.60
2022-08-21T01:23:05.162Z,16.40
2022-08-21T01:26:01.527Z,16.60
2022-08-21T01:28:35.525Z,16.60
2022-08-21T01:31:07.730Z,16.10
2022-08-21T01:33:43.956Z,16.40
2022-08-21T01:36:19.375Z,16.50
2022-08-21T01:39:05.943Z,16.50
2022-08-21T01:41:34.664Z,16.40
2022-08-21T01:44:03.257Z,16.30
2022-08-21T01:46:36.307Z,16.20
2022-08-21T01:49:08.003Z,16.20
2022-08-21T01:51:51.488Z,16.20
2022-08-21T01:54:24.135Z,16.10
2022-08-21T01:56:53.884Z,16.30
2022-08-21T01:59:31.275Z,16.20
2022-08-21T02:02:00.835Z,16.20
2022-08-21T02:04:32.540Z,16.20
2022-08-21T02:07:04.204Z,16.30
2022-08-21T02:10:00.334Z,16.30
2022-08-21T02:12:30.277Z,16.10
2022-08-21T02:15:01.995Z,16.10
2022-08-21T02:17:39.998Z,16.10
2022-08-21T02:20:09.492Z,16.10
2022-08-21T02:22:39.315Z,15.90
2022-08-21T02:25:25.376Z,16.00
2022-08-21T02:27:57.474Z,16.10
2022-08-21T02:30:40.352Z,16.00
2022-08-21T02:33:13.117Z,15.90
2022-08-21T02:35:46.602Z,15.90
2022-08-21T02:38:20.613Z,15.60
2022-08-21T02:40:54.989Z,15.60
2022-08-21T02:43:38.404Z,15.90
2022-08-21T02:46:12.374Z,15.60
2022-08-21T02:48:46.040Z,15.30
2022-08-21T02:51:21.087Z,16.00
2022-08-21T02:53:52.524Z,15.90
2022-08-21T02:56:25.746Z,15.70
2022-08-21T02:59:02.007Z,15.10
2022-08-21T03:01:33.595Z,15.80
2022-08-21T03:04:02.108Z,15.70
2022-08-21T03:06:37.096Z,15.70
2022-08-21T03:09:14.891Z,15.60
2022-08-21T03:11:52.162Z,15.60
2022-08-21T03:14:20.760Z,16.20
2022-08-21T03:16:53.949Z,15.70
2022-08-21T03:19:24.155Z,15.70
2022-08-21T03:21:54.634Z,15.60
2022-08-21T03:24:27.738Z,15.70
2022-08-21T03:27:00.533Z,15.70
2022-08-21T03:29:35.126Z,15.60
2022-08-21T03:32:03.691Z,15.60
2022-08-21T03:34:35.071Z,15.60
2022-08-21T03:37:05.981Z,15.60
2022-08-21T03:39:36.925Z,15.50
2022-08-21T03:42:07.533Z,15.50
2022-08-21T03:44:47.905Z,15.50
2022-08-21T03:47:17.558Z,15.50
2022-08-21T03:49:55.102Z,15.30
2022-08-21T03:52:37.743Z,15.40
2022-08-21T03:55:08.131Z,15.30
2022-08-21T03:57:40.320Z,15.30
2022-08-21T04:00:16.976Z,15.30
2022-08-21T04:02:45.791Z,15.40
2022-08-21T04:05:28.434Z,15.30
2022-08-21T04:08:04.763Z,15.40
2022-08-21T04:10:52.021Z,15.20
2022-08-21T04:13:29.349Z,15.20
2022-08-21T04:16:05.408Z,15.20
2022-08-21T04:18:39.563Z,15.40
2022-08-21T04:21:13.424Z,15.40
2022-08-21T04:23:41.999Z,15.50
2022-08-21T04:26:10.914Z,15.50
2022-08-21T04:28:44.840Z,15.70
2022-08-21T04:31:14.205Z,15.50
2022-08-21T04:33:46.161Z,15.40
2022-08-21T04:36:16.400Z,15.50
2022-08-21T04:38:54.394Z,16.30
2022-08-21T04:41:35.096Z,15.50
2022-08-21T04:44:12.492Z,15.10
2022-08-21T04:46:42.975Z,15.40
2022-08-21T04:49:19.280Z,15.50
2022-08-21T04:52:02.944Z,15.50
2022-08-21T04:54:37.132Z,15.50
2022-08-21T04:57:25.289Z,15.50
2022-08-21T05:00:14.238Z,15.60
2022-08-21T05:02:47.339Z,15.60
2022-08-21T05:05:16.538Z,15.60
2022-08-21T05:07:50.113Z,15.70
2022-08-21T05:10:35.485Z,15.80
2022-08-21T05:13:09.613Z,15.70
2022-08-21T05:15:40.047Z,15.80
2022-08-21T05:18:14.802Z,15.80
2022-08-21T05:20:45.071Z,15.80
2022-08-21T05:23:14.660Z,15.90
2022-08-21T05:25:46.146Z,15.90
2022-08-21T05:28:14.668Z,15.90
2022-08-21T05:30:44.684Z,15.90
2022-08-21T05:33:13.501Z,15.90
2022-08-21T05:35:42.377Z,16.00
2022-08-21T05:38:18.410Z,16.00
2022-08-21T05:40:47.344Z,16.10
2022-08-21T05:43:15.890Z,16.20
2022-08-21T05:45:48.936Z,16.20
2022-08-21T05:48:19.504Z,16.30
2022-08-21T05:50:52.874Z,16.30
2022-08-21T05:53:25.231Z,16.50
2022-08-21T05:55:59.790Z,16.50
2022-08-21T05:58:37.979Z,15.80
2022-08-21T06:01:17.960Z,17.50
2022-08-21T06:04:02.299Z,17.70
2022-08-21T06:06:40.668Z,18.00
2022-08-21T06:09:10.957Z,18.10
2022-08-21T06:11:56.363Z,18.10
2022-08-21T06:14:49.727Z,18.60
2022-08-21T06:17:36.618Z,18.80
2022-08-21T06:20:21.321Z,19.30
2022-08-21T06:23:05.106Z,19.60
2022-08-21T06:25:45.392Z,19.60
2022-08-21T06:28:26.171Z,19.90
2022-08-21T06:31:13.149Z,20.30
2022-08-21T06:34:12.895Z,20.80
2022-08-21T06:36:54.229Z,21.00
2022-08-21T06:39:32.425Z,21.40
2022-08-21T06:42:20.064Z,21.70
2022-08-21T06:44:49.053Z,21.60
2022-08-21T06:47:31.961Z,21.40
2022-08-21T06:50:18.182Z,21.70
2022-08-21T06:52:58.263Z,22.10
2022-08-21T06:55:53.473Z,22.40
2022-08-21T06:58:31.544Z,22.70
2022-08-21T07:01:11.260Z,23.20
2022-08-21T07:04:10.879Z,23.50
2022-08-21T07:06:39.382Z,24.30
2022-08-21T07:10:07.811Z,24.60
2022-08-21T07:12:24.414Z,25.00
2022-08-21T07:15:18.983Z,25.50
2022-08-21T07:18:03.366Z,25.20
2022-08-21T07:20:44.553Z,25.70
2022-08-21T07:23:42.714Z,26.00
2022-08-21T07:27:08.223Z,26.60
2022-08-21T07:29:53.720Z,26.80
2022-08-21T07:39:21.676Z,27.50
2022-08-21T07:42:08.709Z,27.50
2022-08-21T07:44:49.580Z,27.80
2022-08-21T07:47:57.511Z,28.00
2022-08-21T07:50:43.895Z,28.50
2022-08-21T07:53:45.439Z,28.60
2022-08-21T07:56:54.893Z,29.50
2022-08-21T08:00:08.057Z,30.40
2022-08-21T08:03:09.595Z,30.40
2022-08-21T08:06:23.404Z,30.60
2022-08-21T08:09:40.887Z,30.90
2022-08-21T08:13:47.036Z,31.60
2022-08-21T08:16:26.655Z,33.00
2022-08-21T08:20:03.751Z,33.80
2022-08-21T08:26:04.128Z,34.40
2022-08-21T08:26:11.889Z,34.50
2022-08-21T08:28:56.751Z,35.70
2022-08-21T08:32:14.381Z,36.50
2022-08-21T08:34:51.896Z,36.60
2022-08-21T08:37:44.403Z,36.50
2022-08-21T08:40:37.085Z,36.10
2022-08-21T08:47:04.625Z,37.60
2022-08-21T08:49:50.525Z,37.80
2022-08-21T08:52:56.709Z,37.70
2022-08-21T08:58:48.460Z,38.70
2022-08-21T09:01:48.901Z,38.50
2022-08-21T09:04:39.888Z,38.40
2022-08-21T09:07:31.361Z,38.90
2022-08-21T09:10:12.502Z,39.20
2022-08-21T09:12:51.866Z,39.60
2022-08-21T09:18:56.589Z,40.00
2022-08-21T09:21:43.914Z,39.90
2022-08-21T09:24:27.148Z,40.10
2022-08-21T09:27:10.110Z,40.20
2022-08-21T09:29:49.260Z,39.70
2022-08-21T09:32:36.996Z,39.20
2022-08-21T09:35:09.218Z,39.40
2022-08-21T09:38:25.023Z,39.70
2022-08-21T09:41:01.573Z,40.00
2022-08-21T09:46:51.997Z,40.00
2022-08-21T09:49:31.898Z,39.40
2022-08-21T09:52:01.050Z,39.50
2022-08-21T09:54:35.020Z,39.60
2022-08-21T09:57:29.290Z,39.50
2022-08-21T10:00:11.999Z,39.80
2022-08-21T10:02:48.546Z,39.70
2022-08-21T10:05:22.562Z,40.10
2022-08-21T10:08:04.810Z,40.40
2022-08-21T10:10:35.403Z,40.10
2022-08-21T10:13:09.117Z,39.90
2022-08-21T10:15:42.803Z,40.30
2022-08-21T10:18:23.178Z,39.80
2022-08-21T10:20:55.379Z,40.60
2022-08-21T10:26:29.015Z,41.10
2022-08-21T10:29:04.893Z,41.20
2022-08-21T10:31:46.274Z,41.20
2022-08-21T10:34:28.407Z,41.30
2022-08-21T10:37:19.835Z,41.20
2022-08-21T10:40:10.293Z,41.40
2022-08-21T10:42:45.958Z,41.40
2022-08-21T10:45:21.456Z,41.90
2022-08-21T10:48:02.352Z,41.70
2022-08-21T10:51:09.653Z,41.80
2022-08-21T10:53:43.781Z,41.60
2022-08-21T10:56:36.658Z,41.40
2022-08-21T10:59:43.215Z,41.40
2022-08-21T11:02:20.448Z,40.40
2022-08-21T11:04:57.136Z,39.40
2022-08-21T11:07:34.695Z,39.20
2022-08-21T11:10:05.687Z,39.30
2022-08-21T11:12:44.077Z,39.20
2022-08-21T11:15:28.965Z,39.30
2022-08-21T11:18:03.808Z,39.20
2022-08-21T11:20:35.102Z,39.20
2022-08-21T11:23:08.768Z,39.50
2022-08-21T11:25:39.163Z,38.80
2022-08-21T11:28:14.386Z,39.10
2022-08-21T11:30:51.129Z,38.90
2022-08-21T11:33:29.118Z,39.00
2022-08-21T11:36:07.037Z,39.30
2022-08-21T11:38:41.911Z,39.10
2022-08-21T11:41:28.056Z,39.60
2022-08-21T11:44:00.241Z,39.80
2022-08-21T11:46:36.067Z,40.10
2022-08-21T11:49:22.402Z,40.30
2022-08-21T11:51:55.043Z,40.40
2022-08-21T11:54:28.340Z,40.50
2022-08-21T11:56:58.685Z,40.60
2022-08-21T11:59:30.968Z,40.50
2022-08-21T12:01:59.522Z,40.80
2022-08-21T12:04:29.703Z,40.60
2022-08-21T12:06:58.177Z,40.50
2022-08-21T12:09:37.869Z,40.00
2022-08-21T12:12:07.481Z,40.00
2022-08-21T12:14:39.898Z,39.90
2022-08-21T12:17:12.543Z,39.80
2022-08-21T12:19:41.711Z,39.60
2022-08-21T12:22:12.031Z,39.30
2022-08-21T12:24:44.180Z,39.30
2022-08-21T12:27:21.295Z,39.30
2022-08-21T12:29:51.037Z,38.90
2022-08-21T12:32:25.466Z,38.80
2022-08-21T12:34:58.004Z,38.50
2022-08-21T12:37:30.456Z,38.40
2022-08-21T12:40:04.081Z,38.40
2022-08-21T12:42:36.353Z,38.50
2022-08-21T12:45:10.207Z,38.50
2022-08-21T12:47:45.705Z,38.20
2022-08-21T12:50:15.998Z,38.30
2022-08-21T12:52:47.044Z,38.30
2022-08-21T12:55:28.233Z,38.20
2022-08-21T12:57:59.459Z,38.10
2022-08-21T13:00:29.046Z,38.30
2022-08-21T13:02:57.928Z,38.70
2022-08-21T13:05:30.498Z,38.60
2022-08-21T13:07:59.241Z,38.70
2022-08-21T13:10:30.470Z,38.70
2022-08-21T13:13:00.791Z,38.90
2022-08-21T13:15:33.637Z,39.00
2022-08-21T13:18:03.663Z,38.90
2022-08-21T13:20:34.398Z,38.70
2022-08-21T13:23:03.780Z,38.70
2022-08-21T13:25:42.510Z,38.60
2022-08-21T13:28:15.971Z,38.50
2022-08-21T13:30:45.504Z,38.30
2022-08-21T13:33:18.305Z,38.10
2022-08-21T13:35:51.317Z,38.40
2022-08-21T13:38:22.068Z,38.70
2022-08-21T13:40:58.374Z,38.80
2022-08-21T13:43:30.072Z,38.60
2022-08-21T13:45:58.598Z,38.60
2022-08-21T13:48:29.009Z,38.20
2022-08-21T13:50:57.547Z,38.10
2022-08-21T13:53:31.344Z,38.00
2022-08-21T13:56:02.061Z,37.60
2022-08-21T13:58:33.802Z,37.60
2022-08-21T14:01:07.217Z,37.40
2022-08-21T14:03:37.902Z,37.50
2022-08-21T14:06:13.418Z,37.20
2022-08-21T14:08:42.419Z,37.10
2022-08-21T14:11:14.617Z,37.30
2022-08-21T14:13:44.648Z,37.10
2022-08-21T14:16:14.895Z,36.90
2022-08-21T14:18:49.401Z,36.70
2022-08-21T14:21:30.158Z,36.70
2022-08-21T14:24:05.517Z,36.50
2022-08-21T14:26:39.101Z,36.40
2022-08-21T14:29:10.529Z,36.00
2022-08-21T14:31:43.069Z,35.80
2022-08-21T14:34:17.312Z,35.60
2022-08-21T14:36:48.891Z,35.40
2022-08-21T14:39:17.596Z,35.00
2022-08-21T14:41:49.783Z,34.40
2022-08-21T14:44:19.329Z,33.60
2022-08-21T14:46:55.497Z,32.80
2022-08-21T14:49:27.606Z,32.40
2022-08-21T14:51:58.651Z,31.80
2022-08-21T14:54:31.760Z,31.50
2022-08-21T14:57:12.445Z,31.00
2022-08-21T14:59:41.308Z,30.50
2022-08-21T15:02:09.790Z,30.00
2022-08-21T15:04:38.166Z,29.80
2022-08-21T15:07:06.547Z,29.60
2022-08-21T15:09:34.852Z,29.40
2022-08-21T15:12:05.101Z,29.30
2022-08-21T15:14:41.799Z,29.20
2022-08-21T15:17:14.461Z,29.00
2022-08-21T15:19:43.922Z,28.90
2022-08-21T15:22:18.727Z,28.70
2022-08-21T15:24:51.647Z,28.60
2022-08-21T15:27:24.100Z,28.50
2022-08-21T15:29:54.531Z,28.40
2022-08-21T15:32:24.789Z,28.30
2022-08-21T15:34:58.812Z,28.20
2022-08-21T15:37:28.101Z,28.20
2022-08-21T15:39:56.566Z,28.00
2022-08-21T15:42:27.795Z,28.20
2022-08-21T15:44:56.409Z,28.20
2022-08-21T15:47:28.116Z,28.10
2022-08-21T15:49:59.576Z,28.10
2022-08-21T15:52:28.536Z,28.00
2022-08-21T15:54:57.034Z,27.90
2022-08-21T15:57:27.815Z,27.90
2022-08-21T15:59:58.639Z,27.90
2022-08-21T16:02:29.911Z,27.90
2022-08-21T16:04:58.308Z,27.80
2022-08-21T16:07:26.850Z,27.80
2022-08-21T16:09:57.614Z,27.70
2022-08-21T16:12:40.113Z,27.70
2022-08-21T16:15:20.223Z,27.60
2022-08-21T16:17:50.682Z,27.40
2022-08-21T16:20:21.164Z,27.30
2022-08-21T16:22:55.023Z,27.20
2022-08-21T16:25:30.636Z,27.10
2022-08-21T16:28:04.600Z,27.10
2022-08-21T16:30:33.290Z,27.10
2022-08-21T16:33:05.276Z,27.10
2022-08-21T16:35:33.919Z,27.00
2022-08-21T16:38:02.575Z,27.00
2022-08-21T16:40:31.034Z,26.90
2022-08-21T16:43:01.831Z,26.90
2022-08-21T16:45:34.501Z,26.90
2022-08-21T16:48:04.686Z,26.80
2022-08-21T16:50:33.224Z,26.80
2022-08-21T16:53:01.472Z,26.80
2022-08-21T16:55:29.933Z,26.70
2022-08-21T16:58:01.404Z,26.70
2022-08-21T17:00:48.436Z,26.60
2022-08-21T17:03:34.774Z,26.50
2022-08-21T17:06:07.041Z,26.50
2022-08-21T17:08:38.179Z,26.50
2022-08-21T17:11:24.474Z,26.40
2022-08-21T17:14:05.677Z,26.40
2022-08-21T17:16:37.455Z,26.30
2022-08-21T17:19:11.312Z,26.30
2022-08-21T17:21:43.452Z,26.30
2022-08-21T17:24:13.155Z,26.20
2022-08-21T17:26:41.969Z,26.20
2022-08-21T17:29:15.510Z,26.00
2022-08-21T17:31:48.850Z,26.00
2022-08-21T17:34:19.106Z,26.00
2022-08-21T17:36:50.655Z,25.90
2022-08-21T17:39:39.920Z,25.20
2022-08-21T17:42:11.019Z,25.70
2022-08-21T17:44:44.290Z,25.60
2022-08-21T17:47:20.422Z,25.60
2022-08-21T17:49:48.815Z,25.50
2022-08-21T17:52:24.189Z,25.30
2022-08-21T17:54:52.873Z,25.30
2022-08-21T17:57:52.700Z,25.20
2022-08-21T18:00:21.768Z,25.10
2022-08-21T18:03:05.830Z,24.90
2022-08-21T18:05:36.723Z,25.00
2022-08-21T18:08:10.543Z,24.70
2022-08-21T18:10:44.823Z,24.50
2022-08-21T18:13:21.708Z,24.40
2022-08-21T18:15:51.682Z,24.20
2022-08-21T18:18:30.817Z,24.20
2022-08-21T18:21:02.689Z,23.70
2022-08-21T18:23:43.841Z,23.90
2022-08-21T18:26:15.284Z,23.50
2022-08-21T18:28:47.461Z,23.20
2022-08-21T18:31:15.953Z,23.10
2022-08-21T18:33:58.395Z,23.00
2022-08-21T18:36:31.121Z,22.90
2022-08-21T18:39:34.805Z,22.60
2022-08-21T18:41:59.392Z,22.60
2022-08-21T18:44:33.661Z,22.40
2022-08-21T18:47:22.108Z,22.30
2022-08-21T18:49:59.632Z,22.30
2022-08-21T18:52:33.831Z,22.00
2022-08-21T18:55:15.638Z,21.90
2022-08-21T18:57:52.561Z,21.80
2022-08-21T19:00:30.890Z,21.70
2022-08-21T19:03:13.107Z,21.50
2022-08-21T19:05:50.953Z,21.40
2022-08-21T19:08:30.872Z,21.20
2022-08-21T19:11:14.980Z,21.00
2022-08-21T19:14:18.729Z,21.00
2022-08-21T19:17:28.594Z,20.80
2022-08-21T19:20:25.740Z,20.70
2022-08-21T19:23:02.351Z,20.60
2022-08-21T19:25:41.849Z,20.50
2022-08-21T19:28:47.546Z,20.50
2022-08-21T19:31:50.559Z,19.90
2022-08-21T19:34:29.432Z,20.40
2022-08-21T19:37:18.252Z,19.50
2022-08-21T19:40:06.719Z,20.30
2022-08-21T19:43:01.173Z,20.20
2022-08-21T19:45:44.252Z,20.10
2022-08-21T19:48:18.964Z,19.80
2022-08-21T19:50:50.006Z,20.00
2022-08-21T19:53:35.655Z,20.00
2022-08-21T19:56:27.120Z,19.90
2022-08-21T19:59:03.915Z,19.90
2022-08-21T20:01:51.394Z,19.80
2022-08-21T20:04:24.482Z,20.00
2022-08-21T20:07:00.011Z,19.70
2022-08-21T20:09:42.563Z,19.70
2022-08-21T20:12:27.394Z,19.70
2022-08-21T20:15:08.706Z,19.60
2022-08-21T20:17:48.526Z,19.50
2022-08-21T20:20:24.678Z,19.50
2022-08-21T20:23:10.734Z,19.50
2022-08-21T20:25:47.611Z,19.50
2022-08-21T20:28:32.454Z,19.50
2022-08-21T20:34:07.247Z,19.40
2022-08-21T20:36:43.276Z,19.30
2022-08-21T20:39:20.315Z,19.30
2022-08-21T20:41:55.107Z,19.30
2022-08-21T20:44:38.419Z,19.20
2022-08-21T20:47:29.267Z,19.20
2022-08-21T20:50:15.343Z,19.20
2022-08-21T20:52:57.712Z,19.00
2022-08-21T20:55:38.596Z,19.10
2022-08-21T20:58:20.153Z,19.00
2022-08-21T21:00:58.172Z,19.90
2022-08-21T21:06:59.031Z,18.90
2022-08-21T21:09:43.123Z,18.80
2022-08-21T21:12:27.917Z,18.60
2022-08-21T21:15:14.286Z,18.60
2022-08-21T21:18:03.724Z,18.50
2022-08-21T21:20:45.830Z,18.60
2022-08-21T21:23:35.599Z,18.50
2022-08-21T21:26:08.311Z,18.40
2022-08-21T21:29:15.327Z,18.40
2022-08-21T21:31:52.156Z,18.40
2022-08-21T21:34:30.619Z,18.30
2022-08-21T21:37:10.947Z,18.20
2022-08-21T21:42:50.501Z,18.20
2022-08-21T21:45:37.848Z,18.80
2022-08-21T21:48:21.260Z,18.20
2022-08-21T21:51:03.187Z,18.00
2022-08-21T21:57:21.046Z,18.10
2022-08-21T22:00:02.845Z,17.40
2022-08-21T22:02:58.767Z,18.00
2022-08-21T22:05:50.600Z,17.30
2022-08-21T22:08:51.274Z,17.00
2022-08-21T22:11:29.551Z,18.00
2022-08-21T22:14:22.663Z,18.10
2022-08-21T22:18:07.484Z,17.90
2022-08-21T22:20:53.297Z,18.00
2022-08-21T22:26:50.915Z,17.90
2022-08-21T22:29:56.083Z,18.00
2022-08-21T22:32:29.570Z,17.80
2022-08-21T22:35:40.755Z,17.80
2022-08-21T22:41:54.533Z,17.90
2022-08-21T22:45:00.286Z,17.90
2022-08-21T22:47:42.227Z,17.90
2022-08-21T22:50:43.650Z,17.90
2022-08-21T22:53:32.470Z,17.80
2022-08-21T23:00:14.595Z,17.70
2022-08-21T23:03:07.921Z,17.60
2022-08-21T23:05:58.140Z,17.60
2022-08-21T23:08:33.955Z,17.50
2022-08-21T23:11:23.524Z,17.40
2022-08-21T23:14:14.077Z,17.40
2022-08-21T23:16:59.305Z,17.40
2022-08-21T23:23:19.920Z,17.30
2022-08-21T23:26:00.190Z,17.20
2022-08-21T23:28:59.320Z,17.20
2022-08-21T23:32:00.330Z,17.10
2022-08-21T23:35:17.868Z,17.10
2022-08-21T23:38:12.055Z,16.90
2022-08-21T23:40:55.414Z,17.10
2022-08-21T23:46:56.463Z,17.00
2022-08-21T23:53:09.252Z,16.90
2022-08-21T23:55:54.990Z,16.90
2022-08-21T23:58:51.624Z,16.90
